DW4702 Weather Reports


Display with metric or nautical units.
time (UTC)temp
F
wind
direction
speed
MPH
gust
MPH
rain 1hr
in
rain 24hr
in
rain mn
in
humidity
%
barometer
mb
20210411213210 65 308 0.0 6.0 0.00 0.00 0.00 35 1023.9
20210411211531 63 335 0.0 8.0 0.00 0.00 0.00 39 1024.0
20210411210031 61 323 0.0 8.0 0.00 0.00 0.00 39 1024.2
20210411204524 63 1 0.0 6.0 0.00 0.00 0.00 38 1024.4
20210411203350 63 349 0.0 6.0 0.00 0.00 0.00 38 1024.7
20210411201531 62 47 0.0 5.0 0.00 0.00 0.00 39 1025.0
20210411200105 61 321 0.0 7.0 0.00 0.00 0.00 40 1025.0
20210411194522 61 337 0.0 7.0 0.00 0.00 0.00 41 1025.4
20210411193143 60 343 0.0 7.0 0.00 0.00 0.00 43 1025.7
20210411191519 60 337 0.0 5.0 0.00 0.00 0.00 44 1025.7
20210411190201 59 326 0.0 6.0 0.00 0.00 0.00 46 1025.9
20210411184537 58 340 0.0 6.0 0.00 0.00 0.00 45 1026.1
20210411183401 57 330 0.0 6.0 0.00 0.00 0.00 49 1026.3
20210411181523 57 327 0.0 6.0 0.00 0.00 0.00 51 1026.4
20210411180029 56 332 0.0 5.0 0.00 0.00 0.00 51 1026.6
20210411174549 55 345 0.0 3.0 0.00 0.00 0.00 53 1026.7
20210411173140 54 352 0.0 3.0 0.00 0.00 0.00 57 1026.8
20210411171547 52 353 0.0 1.0 0.00 0.00 0.00 61 1026.9
20210411170028 50 353 0.0 2.0 0.00 0.00 0.00 66 1026.9
20210411164537 47 353 0.0 2.0 0.00 0.00 0.00 72 1026.9
20210411163143 44 346 0.0 2.0 0.00 0.00 0.00 79 1027.1
20210411161530 40 305 0.0 1.0 0.00 0.00 0.00 86 1027.1
20210411160027 38 0.0 1.0 0.00 0.00 0.00 88 1027.2
20210411154526 35 39 0.0 1.0 0.00 0.00 0.00 88 1027.3
20210411153039 33 0.0 0.0 0.00 0.00 0.00 88 1027.1
20210411151521 31 0.0 0.0 0.00 0.00 0.00 88 1027.2
20210411150117 31 0.0 0.0 0.00 0.00 0.00 88 1027.1
20210411144519 30 0.0 0.0 0.00 0.00 0.00 88 1027.1
20210411143042 29 0.0 0.0 0.00 0.00 0.00 88 1027.1
20210411141523 29 0.0 0.0 0.00 0.00 0.00 88 1027.1
20210411140042 29 0.0 0.0 0.00 0.00 0.00 88 1026.9
20210411134528 29 0.0 0.0 0.00 0.00 0.00 87 1026.9
20210411133046 29 0.0 0.0 0.00 0.01 0.00 87 1026.9
20210411131522 29 0.0 0.0 0.00 0.02 0.00 87 1026.9
20210411130057 29 0.0 0.0 0.00 0.03 0.00 87 1026.7
20210411124526 29 0.0 0.0 0.00 0.04 0.00 86 1026.8
20210411123041 29 0.0 0.0 0.00 0.04 0.00 86 1026.8
20210411121516 30 0.0 0.0 0.00 0.05 0.00 86 1026.9
20210411120125 30 0.0 0.0 0.00 0.05 0.00 86 1027.0
20210411114522 30 0.0 0.0 0.00 0.05 0.00 87 1027.0
20210411113027 30 0.0 0.0 0.00 0.05 0.00 87 1026.9
20210411111523 30 0.0 0.0 0.00 0.05 0.00 86 1026.8
20210411110031 31 0.0 0.0 0.00 0.06 0.00 86 1026.7
20210411104526 31 0.0 0.0 0.00 0.06 0.00 86 1026.6
20210411103047 31 0.0 0.0 0.00 0.06 0.00 85 1026.7
20210411101529 31 0.0 0.0 0.00 0.06 0.00 85 1026.7
20210411100033 32 0.0 0.0 0.00 0.06 0.00 84 1026.8
20210411094523 32 0.0 0.0 0.00 0.06 0.00 84 1026.9
20210411093039 32 0.0 0.0 0.00 0.06 0.00 84 1026.9
20210411091527 33 0.0 0.0 0.00 0.06 0.00 84 1027.0
20210411090131 33 0.0 0.0 0.00 0.06 0.00 83 1027.1
20210411084526 34 0.0 0.0 0.00 0.06 0.00 81 1027.1
20210411083028 35 0.0 0.0 0.00 0.06 0.00 80 1027.0
20210411081521 35 0.0 0.0 0.00 0.06 0.00 80 1026.9
20210411080025 36 0.0 0.0 0.00 0.06 0.00 78 1027.0
20210411074522 36 0.0 0.0 0.00 0.06 0.00 78 1027.0
20210411073028 37 0.0 0.0 0.00 0.06 0.00 76 1027.1
20210411071527 38 0.0 0.0 0.00 0.06 0.00 74 1027.1
20210411070051 39 0.0 2.0 0.00 0.06 0.06 73 1026.9
20210411064526 39 303 0.0 6.0 0.00 0.06 0.06 72 1026.9
20210411061531 40 282 0.0 5.0 0.00 0.06 0.06 70 1026.8
20210411054521 40 326 0.0 4.0 0.00 0.06 0.06 69 1026.7
20210411051543 41 336 0.0 5.0 0.00 0.06 0.06 67 1026.6
20210411044536 42 340 0.0 2.0 0.00 0.06 0.06 64 1026.5
20210411041539 43 328 0.0 5.0 0.00 0.06 0.06 61 1026.4
20210411034540 44 337 0.0 7.0 0.00 0.06 0.06 57 1025.9
20210411031621 45 307 0.0 7.0 0.00 0.06 0.06 56 1025.5
20210411024527 46 326 0.0 9.0 0.00 0.06 0.06 53 1025.3
20210411023031 46 329 0.0 8.0 0.00 0.06 0.06 53 1025.2
20210411021531 47 325 0.0 10.0 0.00 0.06 0.06 51 1025.1
20210411020440 47 323 0.0 10.0 0.00 0.06 0.06 52 1024.9
20210411014532 47 324 0.0 7.0 0.00 0.06 0.06 55 1025.0
20210411013115 48 323 0.0 7.0 0.00 0.06 0.06 54 1024.9
20210411011540 48 320 0.0 9.0 0.00 0.06 0.06 54 1024.9
20210411004537 48 333 0.0 6.0 0.00 0.06 0.06 58 1024.8
20210411003101 49 337 0.0 7.0 0.00 0.06 0.06 58 1024.8
20210411001529 49 319 0.0 7.0 0.00 0.06 0.06 57 1024.9
20210411000029 51 338 0.0 8.0 0.00 0.06 0.06 57 1024.7
20210410234529 51 322 0.0 8.0 0.00 0.06 0.06 55 1024.7
20210410233051 52 300 0.0 6.0 0.00 0.06 0.06 51 1024.4
20210410231527 51 306 0.0 8.0 0.00 0.06 0.06 56 1024.4
20210410230035 50 296 0.0 8.0 0.00 0.06 0.06 55 1024.6
20210410224557 50 310 0.0 8.0 0.00 0.06 0.06 52 1024.7
20210410223051 50 309 1.0 9.0 0.00 0.06 0.06 52 1024.7
20210410221546 49 306 2.0 10.0 0.00 0.06 0.06 54 1024.8
20210410220031 50 324 1.0 10.0 0.00 0.06 0.06 60 1024.8
20210410214525 50 319 1.0 9.0 0.00 0.06 0.06 57 1024.6